Time;durP1;ratioP1;P1;durP2;ratioP2;P2;SDS_P1;SDS_P2;PMS_P1;PMS_P2;Temp;Humidity;BMP_temperature;BMP_pressure;BME280_temperature;BME280_humidity;BME280_pressure;Samples;Min_cycle;Max_cycle;Signal;HPM_P1;HPM_P2
2023/10/08 00:01:50;;;;;;;0.00;0.00;;;15.80;60.50;;;;;;5014597;28;20396;-83
2023/10/08 00:04:18;;;;;;;0.00;0.00;;;15.90;59.80;;;;;;5013322;28;20146;-83
2023/10/08 00:06:49;;;;;;;0.00;0.00;;;16.00;59.30;;;;;;5011081;28;20076;-82
2023/10/08 00:09:15;;;;;;;0.40;0.40;;;16.00;59.20;;;;;;5024307;28;20025;-83
2023/10/08 00:11:41;;;;;;;0.00;0.00;;;16.00;59.10;;;;;;5011180;28;20022;-82
2023/10/08 00:14:10;;;;;;;0.00;0.00;;;15.90;59.40;;;;;;5014757;28;20017;-83
2023/10/08 00:16:39;;;;;;;0.00;0.00;;;15.80;59.30;;;;;;5020617;28;20370;-84
2023/10/08 00:19:13;;;;;;;0.00;0.00;;;15.70;59.70;;;;;;5019419;28;20561;-83
2023/10/08 00:21:39;;;;;;;0.00;0.00;;;15.60;59.80;;;;;;5023416;28;20551;-83
2023/10/08 00:24:09;;;;;;;0.00;0.00;;;15.50;60.10;;;;;;5025389;28;20026;-83
2023/10/08 00:26:39;;;;;;;3.08;1.88;;;15.40;60.50;;;;;;5025774;28;20088;-83
2023/10/08 00:29:15;;;;;;;0.00;0.00;;;15.40;61.60;;;;;;5023294;28;20029;-82
2023/10/08 00:31:41;;;;;;;0.00;0.00;;;15.30;61.50;;;;;;5021553;28;20652;-85
2023/10/08 00:34:14;;;;;;;0.00;0.00;;;15.30;61.90;;;;;;5024099;28;20031;-83
2023/10/08 00:36:45;;;;;;;0.20;0.20;;;15.30;62.20;;;;;;5025244;28;20040;-83
2023/10/08 00:39:16;;;;;;;0.00;0.00;;;15.20;62.50;;;;;;5016760;28;20025;-85
2023/10/08 00:41:45;;;;;;;0.00;0.00;;;15.20;62.50;;;;;;5024239;28;20037;-84
2023/10/08 00:44:22;;;;;;;0.10;0.10;;;15.20;62.80;;;;;;5019956;28;20022;-83
2023/10/08 00:46:49;;;;;;;0.00;0.00;;;15.10;63.40;;;;;;5021324;28;20093;-83
2023/10/08 00:52:00;;;;;;;0.00;0.00;;;14.90;63.90;;;;;;5024096;28;20044;-83
2023/10/08 00:54:28;;;;;;;0.10;0.10;;;14.90;64.20;;;;;;5024878;28;20574;-82
2023/10/08 00:56:57;;;;;;;0.10;0.10;;;14.90;64.20;;;;;;5024771;28;20025;-82
2023/10/08 00:59:29;;;;;;;0.00;0.00;;;14.80;64.70;;;;;;5023329;28;20025;-82
2023/10/08 01:02:04;;;;;;;0.10;0.10;;;14.90;64.50;;;;;;5023519;28;20038;-83
2023/10/08 01:04:33;;;;;;;0.00;0.00;;;14.90;64.40;;;;;;5015030;28;20060;-83
2023/10/08 01:07:12;;;;;;;0.00;0.00;;;14.90;64.30;;;;;;5025396;28;20029;-83
2023/10/08 01:09:40;;;;;;;0.00;0.00;;;14.80;64.60;;;;;;5025483;28;20033;-84
2023/10/08 01:12:19;;;;;;;0.10;0.10;;;14.90;63.60;;;;;;5024841;28;20035;-84
2023/10/08 01:14:49;;;;;;;0.00;0.00;;;14.90;63.80;;;;;;5020130;28;20029;-84
2023/10/08 01:17:18;;;;;;;0.00;0.00;;;14.80;64.10;;;;;;5023807;28;20029;-84
2023/10/08 01:19:50;;;;;;;0.00;0.00;;;14.70;64.30;;;;;;5025108;28;20116;-83
2023/10/08 01:22:21;;;;;;;0.52;0.52;;;14.70;64.30;;;;;;5022858;28;20036;-84
2023/10/08 01:24:50;;;;;;;0.00;0.00;;;14.70;64.40;;;;;;5024249;28;20049;-84
2023/10/08 01:27:24;;;;;;;0.00;0.00;;;14.70;64.10;;;;;;5013910;28;20029;-82
2023/10/08 01:29:51;;;;;;;2.05;1.95;;;14.60;64.60;;;;;;5019624;28;20123;-85
2023/10/08 01:32:19;;;;;;;0.00;0.00;;;14.50;64.50;;;;;;5020630;28;20021;-84
2023/10/08 01:34:47;;;;;;;0.10;0.10;;;14.40;65.30;;;;;;5023215;28;20816;-83
2023/10/08 01:37:17;;;;;;;0.00;0.00;;;14.30;66.00;;;;;;5024557;28;20030;-83
2023/10/08 01:39:49;;;;;;;0.20;0.20;;;14.30;65.90;;;;;;5020953;28;20025;-83
2023/10/08 01:42:23;;;;;;;0.10;0.10;;;14.30;65.40;;;;;;5024104;28;20017;-83
2023/10/08 01:44:54;;;;;;;4.20;3.50;;;14.40;64.90;;;;;;5023511;28;20030;-82
2023/10/08 01:47:19;;;;;;;0.08;0.08;;;14.30;65.60;;;;;;5022526;28;20040;-83
2023/10/08 01:49:46;;;;;;;0.10;0.10;;;14.30;65.10;;;;;;5025471;28;20041;-83
2023/10/08 01:52:21;;;;;;;0.03;0.03;;;14.30;64.40;;;;;;5024588;28;20021;-83
2023/10/08 01:54:53;;;;;;;0.10;0.10;;;14.20;65.60;;;;;;5024778;28;20033;-82
2023/10/08 01:57:19;;;;;;;0.10;0.10;;;14.30;64.30;;;;;;5024719;28;20399;-82
2023/10/08 01:59:45;;;;;;;0.00;0.00;;;14.30;64.10;;;;;;5024763;28;20045;-82
2023/10/08 02:02:12;;;;;;;0.00;0.00;;;14.10;65.50;;;;;;5020324;28;20022;-82
2023/10/08 02:04:39;;;;;;;1.25;0.50;;;14.20;63.90;;;;;;5023630;28;20076;-82
2023/10/08 02:07:12;;;;;;;0.00;0.00;;;14.20;64.40;;;;;;5024183;28;20039;-83
2023/10/08 02:09:38;;;;;;;0.10;0.10;;;14.20;64.00;;;;;;5024213;28;20025;-84
2023/10/08 02:12:04;;;;;;;0.10;0.10;;;14.20;64.20;;;;;;5024329;28;20021;-83
2023/10/08 02:14:35;;;;;;;0.10;0.10;;;14.20;64.30;;;;;;5022511;28;20060;-83
2023/10/08 02:17:06;;;;;;;0.03;0.03;;;14.10;64.20;;;;;;5016906;28;20065;-82
2023/10/08 02:19:32;;;;;;;0.10;0.10;;;14.20;63.90;;;;;;5023912;28;20029;-82
2023/10/08 02:21:58;;;;;;;0.00;0.00;;;14.00;64.60;;;;;;5024382;28;20057;-82
2023/10/08 02:24:25;;;;;;;0.10;0.10;;;14.00;64.40;;;;;;5023356;28;20884;-83
2023/10/08 02:26:52;;;;;;;0.05;0.05;;;14.20;63.40;;;;;;5023377;28;20086;-82
2023/10/08 02:29:19;;;;;;;0.10;0.10;;;14.00;63.90;;;;;;5021201;28;20025;-81
2023/10/08 02:31:44;;;;;;;0.10;0.10;;;14.10;63.60;;;;;;5023435;28;20155;-81
2023/10/08 02:34:12;;;;;;;0.08;0.08;;;14.20;63.00;;;;;;5021538;28;20040;-81
2023/10/08 02:36:40;;;;;;;0.10;0.10;;;14.00;63.50;;;;;;5020137;28;20116;-81
2023/10/08 02:39:13;;;;;;;0.10;0.10;;;14.00;63.60;;;;;;5010726;28;20049;-81
2023/10/08 02:41:41;;;;;;;0.10;0.10;;;14.00;63.30;;;;;;5023364;28;20040;-82
2023/10/08 02:44:11;;;;;;;0.00;0.00;;;14.00;63.50;;;;;;5019984;28;20032;-81
2023/10/08 02:46:41;;;;;;;0.00;0.00;;;14.00;63.80;;;;;;5016307;28;20098;-80
2023/10/08 02:49:11;;;;;;;0.05;0.05;;;13.90;64.20;;;;;;5020617;28;20040;-81
2023/10/08 02:51:40;;;;;;;0.10;0.10;;;13.90;63.50;;;;;;5012612;28;20033;-81
2023/10/08 02:54:08;;;;;;;0.10;0.10;;;13.90;63.70;;;;;;5020770;28;20479;-82
2023/10/08 02:56:34;;;;;;;0.10;0.10;;;13.80;64.00;;;;;;5023439;28;20834;-82
2023/10/08 02:59:01;;;;;;;0.00;0.00;;;13.80;63.40;;;;;;5023197;28;20034;-81
2023/10/08 03:01:27;;;;;;;0.10;0.10;;;13.90;63.10;;;;;;5016822;28;20048;-82
2023/10/08 03:04:04;;;;;;;0.10;0.10;;;13.90;63.30;;;;;;5023129;28;20109;-82
2023/10/08 03:06:32;;;;;;;0.10;0.10;;;13.80;63.20;;;;;;5018395;28;20568;-82
2023/10/08 03:09:04;;;;;;;0.00;0.00;;;13.80;63.30;;;;;;5020167;28;20028;-83
2023/10/08 03:11:31;;;;;;;0.00;0.00;;;13.80;63.40;;;;;;5023421;28;20025;-82
2023/10/08 03:13:57;;;;;;;0.10;0.10;;;13.70;64.10;;;;;;5023136;28;20100;-83
2023/10/08 03:16:28;;;;;;;0.00;0.00;;;13.70;63.80;;;;;;5015213;28;20038;-82
2023/10/08 03:18:57;;;;;;;0.10;0.10;;;13.60;64.10;;;;;;5018709;28;20029;-82
2023/10/08 03:21:48;;;;;;;0.10;0.10;;;13.60;63.90;;;;;;5017739;28;20026;-82
2023/10/08 03:24:23;;;;;;;0.05;0.05;;;13.70;63.60;;;;;;5019079;28;20068;-81
2023/10/08 03:26:55;;;;;;;0.10;0.10;;;13.60;63.50;;;;;;5021006;28;20038;-80
2023/10/08 03:29:21;;;;;;;0.00;0.00;;;13.60;63.40;;;;;;5021499;28;20040;-80
2023/10/08 03:34:14;;;;;;;0.10;0.10;;;13.60;63.70;;;;;;5022970;28;20037;-79
2023/10/08 03:36:44;;;;;;;0.10;0.10;;;13.50;64.10;;;;;;5019982;28;20096;-81
2023/10/08 03:39:13;;;;;;;0.10;0.10;;;13.50;64.10;;;;;;5023287;28;20026;-80
2023/10/08 03:41:51;;;;;;;0.10;0.10;;;13.50;64.40;;;;;;5029799;28;20025;-80
2023/10/08 03:44:19;;;;;;;0.00;0.00;;;13.40;65.10;;;;;;5022017;28;20409;-81
2023/10/08 03:46:46;;;;;;;0.10;0.10;;;13.30;65.60;;;;;;5024607;28;20037;-81
2023/10/08 03:51:51;;;;;;;0.10;0.10;;;13.40;64.60;;;;;;5024676;28;20029;-82
2023/10/08 03:54:18;;;;;;;0.10;0.10;;;13.30;65.10;;;;;;5025932;28;20082;-81
2023/10/08 03:56:45;;;;;;;0.65;0.65;;;13.30;65.00;;;;;;5025052;28;20394;-81
2023/10/08 03:59:20;;;;;;;;;;;13.40;64.30;;;;;;5025619;28;20076;-81
2023/10/08 04:01:49;;;;;;;1.80;0.73;;;13.40;64.10;;;;;;5022121;28;19948;-81
2023/10/08 04:04:15;;;;;;;0.00;0.00;;;13.30;64.10;;;;;;5022553;28;20025;-82
2023/10/08 04:06:49;;;;;;;0.10;0.10;;;13.40;64.20;;;;;;5021307;28;20598;-81
2023/10/08 04:09:23;;;;;;;0.10;0.10;;;13.30;64.50;;;;;;5021863;28;20026;-81
2023/10/08 04:11:55;;;;;;;0.10;0.10;;;13.30;64.10;;;;;;5017250;28;20030;-81
2023/10/08 04:14:23;;;;;;;4.22;3.85;;;13.30;64.00;;;;;;5021749;28;20033;-81
2023/10/08 04:16:52;;;;;;;0.73;0.73;;;13.30;64.00;;;;;;5018040;28;20029;-81
2023/10/08 04:19:26;;;;;;;0.10;0.10;;;13.30;64.10;;;;;;5035782;28;20033;-80
2023/10/08 04:21:56;;;;;;;0.10;0.10;;;13.20;64.40;;;;;;5016224;28;20045;-80
2023/10/08 04:24:34;;;;;;;0.10;0.10;;;13.20;65.30;;;;;;5021410;28;20107;-81
2023/10/08 04:27:05;;;;;;;0.10;0.10;;;13.10;64.90;;;;;;5028013;28;20714;-81
2023/10/08 04:29:36;;;;;;;0.10;0.10;;;13.20;64.70;;;;;;5026329;28;20029;-81
2023/10/08 04:32:07;;;;;;;0.10;0.10;;;13.10;64.50;;;;;;5025630;28;20127;-82
2023/10/08 04:34:36;;;;;;;0.10;0.10;;;13.20;64.20;;;;;;5020895;28;20028;-82
2023/10/08 04:37:03;;;;;;;0.82;0.82;;;13.10;64.50;;;;;;5026806;28;20047;-82
2023/10/08 04:39:33;;;;;;;0.10;0.10;;;13.10;64.60;;;;;;5028227;28;20037;-82
2023/10/08 04:42:09;;;;;;;0.10;0.10;;;13.10;64.50;;;;;;5027775;28;20035;-82
2023/10/08 04:44:38;;;;;;;0.10;0.10;;;13.10;65.00;;;;;;5028651;28;20029;-82
2023/10/08 04:47:04;;;;;;;0.10;0.10;;;13.00;65.00;;;;;;5026137;28;20041;-82
2023/10/08 04:49:32;;;;;;;3.83;2.70;;;13.00;65.10;;;;;;5027081;28;20116;-82
2023/10/08 04:51:58;;;;;;;0.40;0.40;;;13.00;65.20;;;;;;5025947;28;20311;-82
2023/10/08 04:54:29;;;;;;;0.20;0.20;;;13.00;65.20;;;;;;5025469;28;20076;-80
2023/10/08 04:57:01;;;;;;;0.85;0.85;;;13.00;65.00;;;;;;5021347;28;20143;-82
2023/10/08 04:59:33;;;;;;;0.10;0.10;;;12.90;65.30;;;;;;5023261;28;20030;-81
2023/10/08 05:23:53;;;;;;;0.10;0.10;;;12.80;66.80;;;;;;5025284;28;20037;-82
2023/10/08 05:39:30;;;;;;;0.10;0.10;;;12.90;65.50;;;;;;5025037;28;20440;-82
2023/10/08 05:42:16;;;;;;;0.00;0.00;;;12.80;66.10;;;;;;5024770;28;20025;-82
2023/10/08 05:45:13;;;;;;;0.00;0.00;;;12.70;66.40;;;;;;5021835;28;20017;-82
2023/10/08 05:55:27;;;;;;;0.10;0.10;;;12.70;66.80;;;;;;5023738;28;20040;-81
2023/10/08 05:58:13;;;;;;;0.10;0.10;;;12.80;66.20;;;;;;5024584;28;20517;-82
2023/10/08 06:14:13;;;;;;;0.10;0.10;;;12.70;67.60;;;;;;5024215;28;20113;-81
2023/10/08 06:16:44;;;;;;;0.10;0.10;;;12.60;68.20;;;;;;5025223;28;20095;-82
2023/10/08 06:19:21;;;;;;;0.10;0.10;;;12.60;68.70;;;;;;5023788;28;20104;-82
2023/10/08 06:21:47;;;;;;;0.10;0.10;;;12.70;68.20;;;;;;5024697;28;20550;-82
2023/10/08 06:24:16;;;;;;;0.10;0.10;;;12.90;67.50;;;;;;5024319;28;20147;-82
2023/10/08 06:26:42;;;;;;;0.10;0.10;;;13.00;67.00;;;;;;5022550;28;20052;-81
2023/10/08 06:29:18;;;;;;;0.05;0.05;;;13.10;67.10;;;;;;5022895;28;20025;-81
2023/10/08 06:31:51;;;;;;;0.10;0.10;;;13.30;67.00;;;;;;5013838;28;20068;-81
2023/10/08 06:34:21;;;;;;;0.10;0.10;;;13.30;66.80;;;;;;5021594;28;20091;-82
2023/10/08 06:36:50;;;;;;;0.10;0.10;;;13.50;66.20;;;;;;5021907;28;20146;-82
2023/10/08 06:39:18;;;;;;;0.00;0.00;;;13.80;65.50;;;;;;5023651;28;20105;-82
2023/10/08 06:41:46;;;;;;;0.30;0.30;;;14.10;64.50;;;;;;5019483;28;20344;-82
2023/10/08 06:44:15;;;;;;;0.10;0.10;;;14.30;63.80;;;;;;5019805;28;20071;-81
2023/10/08 06:46:41;;;;;;;0.10;0.10;;;14.40;63.30;;;;;;5023481;28;20443;-83
2023/10/08 06:49:11;;;;;;;0.00;0.00;;;14.60;62.80;;;;;;5022455;28;20504;-82
2023/10/08 06:51:38;;;;;;;0.00;0.00;;;14.80;61.90;;;;;;5013445;28;20129;-82
2023/10/08 06:54:03;;;;;;;0.00;0.00;;;15.00;61.40;;;;;;5022940;28;20033;-78
2023/10/08 06:56:31;;;;;;;3.23;3.00;;;15.30;60.50;;;;;;5021492;28;20417;-75
2023/10/08 06:58:59;;;;;;;4.15;3.83;;;15.20;60.60;;;;;;5022664;28;20119;-77
2023/10/08 07:01:24;;;;;;;0.32;0.32;;;15.20;61.20;;;;;;5022759;28;20494;-75
2023/10/08 07:04:03;;;;;;;0.00;0.00;;;15.20;63.40;;;;;;5022829;28;20029;-75
2023/10/08 07:06:33;;;;;;;0.00;0.00;;;15.60;61.50;;;;;;5016448;28;20029;-75
2023/10/08 07:09:04;;;;;;;0.00;0.00;;;15.80;60.90;;;;;;5020771;28;20361;-74
2023/10/08 07:11:34;;;;;;;0.00;0.00;;;16.20;59.60;;;;;;5022600;28;20402;-73
2023/10/08 07:14:04;;;;;;;0.03;0.03;;;16.20;59.40;;;;;;5022696;28;20029;-74
2023/10/08 07:16:34;;;;;;;0.10;0.10;;;16.40;58.70;;;;;;5022208;28;20076;-75
2023/10/08 07:19:05;;;;;;;0.08;0.08;;;16.70;58.70;;;;;;5023456;28;20048;-73
2023/10/08 07:21:44;;;;;;;0.00;0.00;;;16.80;57.80;;;;;;5023447;28;20033;-75
2023/10/08 07:24:17;;;;;;;0.00;0.00;;;16.90;57.80;;;;;;5027296;28;20021;-80
2023/10/08 07:26:46;;;;;;;0.10;0.10;;;16.80;58.60;;;;;;5014491;28;20072;-75
2023/10/08 07:29:19;;;;;;;0.00;0.00;;;17.00;57.80;;;;;;5023240;28;20068;-74
2023/10/08 07:31:52;;;;;;;2.17;1.75;;;17.20;58.10;;;;;;5018938;28;20791;-75
2023/10/08 07:34:25;;;;;;;0.00;0.00;;;17.50;56.70;;;;;;5016536;28;20485;-78
2023/10/08 07:36:52;;;;;;;1.10;1.08;;;17.30;58.10;;;;;;5021791;28;20073;-81
2023/10/08 07:41:58;;;;;;;0.00;0.00;;;17.80;56.10;;;;;;5009735;28;20037;-77
2023/10/08 07:44:28;;;;;;;0.00;0.00;;;17.80;56.80;;;;;;5021236;28;20062;-85
2023/10/08 07:46:57;;;;;;;0.00;0.00;;;18.10;56.60;;;;;;5014168;28;20116;-85
2023/10/08 07:49:29;;;;;;;0.00;0.00;;;18.50;55.10;;;;;;5022226;28;20485;-83
2023/10/08 07:51:58;;;;;;;0.00;0.00;;;18.70;55.60;;;;;;5021140;28;20037;-83
2023/10/08 07:54:27;;;;;;;0.00;0.00;;;19.10;54.10;;;;;;5021126;28;20030;-83
2023/10/08 07:57:00;;;;;;;0.03;0.03;;;19.40;53.70;;;;;;5013123;28;20025;-83
2023/10/08 07:59:25;;;;;;;0.00;0.00;;;19.70;53.60;;;;;;5021227;28;20838;-83
2023/10/08 08:01:52;;;;;;;0.00;0.00;;;20.10;52.30;;;;;;5017312;28;20036;-84
2023/10/08 08:04:24;;;;;;;0.00;0.00;;;20.00;53.20;;;;;;5024973;28;20025;-83
2023/10/08 08:06:50;;;;;;;0.35;0.35;;;20.10;52.50;;;;;;5017474;28;20053;-84
2023/10/08 08:09:20;;;;;;;0.00;0.00;;;20.20;51.70;;;;;;5022398;28;20037;-83
2023/10/08 08:11:49;;;;;;;0.00;0.00;;;20.50;51.80;;;;;;5016014;28;20132;-83
2023/10/08 08:14:24;;;;;;;0.00;0.00;;;20.60;51.10;;;;;;5022472;28;20033;-84
2023/10/08 08:16:50;;;;;;;0.27;0.27;;;20.80;51.90;;;;;;5020113;28;20120;-84
2023/10/08 08:19:17;;;;;;;0.00;0.00;;;20.90;51.40;;;;;;5020701;28;20064;-84
2023/10/08 08:21:45;;;;;;;;;;;21.00;50.90;;;;;;5015713;28;20121;-84
2023/10/08 08:24:13;;;;;;;0.00;0.00;;;21.20;49.90;;;;;;5010981;28;19913;-84
2023/10/08 08:27:01;;;;;;;0.13;0.13;;;21.30;51.20;;;;;;5021341;28;20049;-83
2023/10/08 08:29:29;;;;;;;0.00;0.00;;;21.40;52.00;;;;;;5024559;28;20025;-84
2023/10/08 08:31:56;;;;;;;0.00;0.00;;;22.20;50.50;;;;;;5023542;28;20103;-84
2023/10/08 08:34:23;;;;;;;0.00;0.00;;;21.80;50.10;;;;;;5025970;28;20028;-83
2023/10/08 08:36:49;;;;;;;0.00;0.00;;;21.60;50.50;;;;;;5025374;28;20412;-83
2023/10/08 08:39:36;;;;;;;0.00;0.00;;;22.30;50.40;;;;;;5027197;28;20106;-83
2023/10/08 08:42:04;;;;;;;0.10;0.10;;;22.50;49.60;;;;;;5022471;28;20124;-83
2023/10/08 08:44:31;;;;;;;0.95;0.95;;;23.00;48.50;;;;;;5025343;28;20076;-83
2023/10/08 08:47:04;;;;;;;0.00;0.00;;;23.00;49.30;;;;;;5023693;28;20045;-82
2023/10/08 08:49:34;;;;;;;0.00;0.00;;;23.10;49.10;;;;;;5052018;28;20037;-82
2023/10/08 08:52:00;;;;;;;0.00;0.00;;;23.10;49.00;;;;;;5025665;28;20722;-83
2023/10/08 08:54:30;;;;;;;0.00;0.00;;;23.50;50.40;;;;;;5023148;28;20751;-84
2023/10/08 08:57:02;;;;;;;0.00;0.00;;;23.80;48.70;;;;;;5024970;28;20029;-84
2023/10/08 08:59:30;;;;;;;0.00;0.00;;;23.50;48.70;;;;;;5023569;28;20457;-83
2023/10/08 09:02:00;;;;;;;0.00;0.00;;;23.30;49.40;;;;;;5025053;28;20033;-82
2023/10/08 09:04:32;;;;;;;0.00;0.00;;;23.20;49.00;;;;;;5023683;28;20025;-84
2023/10/08 09:07:04;;;;;;;0.00;0.00;;;23.20;49.40;;;;;;5014467;28;20533;-82
2023/10/08 09:09:35;;;;;;;0.00;0.00;;;23.50;47.90;;;;;;5053988;28;20028;-84
2023/10/08 09:12:01;;;;;;;0.00;0.00;;;23.60;48.50;;;;;;5011482;28;20076;-84
2023/10/08 09:14:34;;;;;;;0.00;0.00;;;23.50;48.40;;;;;;5023363;28;20779;-83
2023/10/08 09:17:01;;;;;;;0.00;0.00;;;23.90;47.90;;;;;;5023114;28;20037;-82
2023/10/08 09:19:29;;;;;;;0.00;0.00;;;23.80;47.60;;;;;;5019367;28;20060;-82
2023/10/08 09:22:06;;;;;;;0.00;0.00;;;23.80;48.20;;;;;;5024150;28;20112;-83
2023/10/08 09:24:39;;;;;;;0.00;0.00;;;24.20;48.10;;;;;;5024815;28;20578;-84
2023/10/08 09:27:15;;;;;;;0.00;0.00;;;24.50;47.50;;;;;;5019559;28;20021;-82
2023/10/08 09:29:42;;;;;;;0.00;0.00;;;24.70;47.70;;;;;;5019931;28;20177;-84
2023/10/08 09:32:10;;;;;;;0.00;0.00;;;24.80;46.90;;;;;;5024427;28;20029;-83
2023/10/08 09:34:36;;;;;;;1.08;0.70;;;24.40;48.30;;;;;;5023290;28;20026;-84
2023/10/08 09:37:02;;;;;;;0.00;0.00;;;23.80;48.10;;;;;;5023441;28;20124;-83
2023/10/08 09:39:33;;;;;;;0.17;0.17;;;23.80;49.20;;;;;;5022398;28;20022;-82
2023/10/08 09:42:03;;;;;;;0.00;0.00;;;23.50;49.70;;;;;;5019139;28;20034;-84
2023/10/08 09:44:30;;;;;;;0.00;0.00;;;23.80;50.30;;;;;;5019595;28;20100;-83
2023/10/08 09:47:07;;;;;;;0.00;0.00;;;23.50;48.90;;;;;;5022634;28;20044;-84
2023/10/08 09:49:49;;;;;;;0.00;0.00;;;23.70;49.40;;;;;;5019385;28;20120;-83
2023/10/08 09:52:16;;;;;;;0.10;0.10;;;23.60;50.60;;;;;;5021102;28;20032;-84
2023/10/08 09:55:10;;;;;;;0.00;0.00;;;23.40;49.80;;;;;;5008419;28;20589;-83
2023/10/08 09:57:36;;;;;;;0.00;0.00;;;23.30;49.90;;;;;;5020999;28;20606;-83
2023/10/08 10:00:04;;;;;;;0.00;0.00;;;23.30;48.70;;;;;;5022897;28;20767;-84
2023/10/08 10:02:32;;;;;;;0.00;0.00;;;23.40;49.10;;;;;;5021494;28;20033;-84
2023/10/08 10:05:00;;;;;;;0.00;0.00;;;23.50;48.70;;;;;;5022861;28;20029;-84
2023/10/08 10:07:28;;;;;;;0.00;0.00;;;23.40;50.00;;;;;;5020293;28;20055;-84
2023/10/08 10:09:55;;;;;;;0.00;0.00;;;23.40;51.90;;;;;;5012453;28;20041;-84
2023/10/08 10:12:28;;;;;;;0.00;0.00;;;23.60;50.30;;;;;;5017564;28;20033;-84
2023/10/08 10:14:56;;;;;;;0.00;0.00;;;23.80;51.60;;;;;;5012991;28;20048;-84
2023/10/08 10:17:25;;;;;;;0.00;0.00;;;24.00;49.40;;;;;;5019052;28;20088;-85
2023/10/08 10:19:55;;;;;;;0.00;0.00;;;24.00;50.90;;;;;;5019454;28;20028;-85
2023/10/08 10:22:34;;;;;;;0.00;0.00;;;23.80;48.90;;;;;;5014486;28;20029;-85
2023/10/08 10:25:14;;;;;;;0.00;0.00;;;23.80;51.70;;;;;;5017157;28;20075;-85
2023/10/08 10:28:03;;;;;;;0.00;0.00;;;24.00;49.30;;;;;;5017360;28;20022;-84
2023/10/08 10:30:30;;;;;;;0.00;0.00;;;24.00;49.30;;;;;;5019460;28;20045;-85
2023/10/08 10:33:00;;;;;;;0.00;0.00;;;23.90;48.80;;;;;;5018022;28;20107;-84
2023/10/08 10:35:27;;;;;;;0.00;0.00;;;23.90;48.70;;;;;;5014515;28;20110;-84
2023/10/08 10:37:55;;;;;;;0.00;0.00;;;24.00;49.30;;;;;;5020003;28;20056;-83
2023/10/08 10:40:39;;;;;;;0.00;0.00;;;24.00;48.80;;;;;;5022521;28;20428;-83
2023/10/08 10:43:10;;;;;;;0.00;0.00;;;24.10;50.60;;;;;;5015884;28;20515;-84
2023/10/08 10:45:36;;;;;;;0.00;0.00;;;24.10;51.00;;;;;;5012635;28;20026;-84
2023/10/08 10:53:26;;;;;;;0.00;0.00;;;24.10;51.60;;;;;;5021457;28;20096;-83
2023/10/08 10:56:09;;;;;;;0.00;0.00;;;24.10;51.60;;;;;;5014390;28;20022;-83
2023/10/08 10:58:44;;;;;;;0.00;0.00;;;24.10;50.80;;;;;;5008884;28;20776;-83
2023/10/08 11:01:25;;;;;;;0.00;0.00;;;24.20;51.20;;;;;;5010825;28;20044;-83
2023/10/08 11:03:52;;;;;;;0.00;0.00;;;24.20;50.80;;;;;;5008507;28;20065;-84
2023/10/08 11:06:22;;;;;;;0.00;0.00;;;24.40;52.60;;;;;;5009895;28;20053;-83
2023/10/08 11:08:52;;;;;;;0.00;0.00;;;24.40;52.90;;;;;;5011101;28;20045;-85
2023/10/08 11:11:29;;;;;;;0.00;0.00;;;24.40;51.80;;;;;;5005031;28;20499;-84
2023/10/08 11:14:03;;;;;;;0.00;0.00;;;24.30;50.60;;;;;;5016862;28;20037;-85
2023/10/08 11:16:31;;;;;;;0.00;0.00;;;24.60;52.90;;;;;;5016594;28;20120;-84
2023/10/08 11:19:06;;;;;;;0.00;0.00;;;24.60;52.20;;;;;;5018205;28;20041;-84
2023/10/08 11:21:33;;;;;;;0.00;0.00;;;24.60;53.70;;;;;;5016592;28;20029;-85
2023/10/08 11:24:01;;;;;;;0.00;0.00;;;24.60;52.00;;;;;;5019313;28;20026;-84
2023/10/08 11:26:38;;;;;;;0.00;0.00;;;24.50;52.20;;;;;;5020925;28;20060;-85
2023/10/08 11:29:13;;;;;;;0.00;0.00;;;24.40;52.80;;;;;;5020735;28;20738;-85
2023/10/08 11:31:40;;;;;;;0.00;0.00;;;24.20;52.50;;;;;;5016535;28;20061;-85
2023/10/08 11:34:08;;;;;;;0.00;0.00;;;24.30;53.60;;;;;;5020932;28;20025;-86
2023/10/08 11:36:48;;;;;;;0.00;0.00;;;24.40;51.70;;;;;;5016338;28;20032;-84
2023/10/08 11:39:29;;;;;;;0.00;0.00;;;24.20;52.30;;;;;;5011025;28;20034;-84
2023/10/08 11:41:56;;;;;;;0.10;0.10;;;24.20;52.30;;;;;;5015425;28;20026;-85
2023/10/08 11:44:23;;;;;;;2.88;2.70;;;24.50;53.30;;;;;;5012497;28;20056;-84
2023/10/08 11:46:52;;;;;;;0.00;0.00;;;24.30;54.00;;;;;;5011342;28;20026;-84
2023/10/08 11:49:19;;;;;;;0.00;0.00;;;24.10;55.30;;;;;;5017508;28;20486;-84
2023/10/08 11:51:46;;;;;;;2.30;1.05;;;24.10;54.20;;;;;;5018942;28;20018;-84
2023/10/08 11:54:12;;;;;;;0.00;0.00;;;24.20;56.00;;;;;;5018461;28;20132;-84
2023/10/08 11:56:39;;;;;;;0.20;0.20;;;24.30;53.20;;;;;;5022215;28;20105;-84
2023/10/08 11:59:08;;;;;;;0.00;0.00;;;24.30;52.50;;;;;;5017628;28;20045;-84
2023/10/08 12:01:35;;;;;;;0.00;0.00;;;24.30;53.80;;;;;;5024001;28;20021;-84
2023/10/08 12:04:04;;;;;;;0.00;0.00;;;24.40;51.90;;;;;;5026122;28;20128;-85
2023/10/08 12:06:30;;;;;;;0.00;0.00;;;24.30;52.50;;;;;;5025709;28;20092;-84
2023/10/08 12:08:58;;;;;;;0.00;0.00;;;24.40;53.70;;;;;;5026011;28;20523;-85
2023/10/08 12:11:30;;;;;;;0.00;0.00;;;24.40;48.80;;;;;;5026342;28;20744;-85
2023/10/08 12:13:58;;;;;;;0.22;0.22;;;24.50;49.10;;;;;;5026062;28;20033;-84
2023/10/08 12:16:26;;;;;;;0.10;0.10;;;24.70;49.30;;;;;;5024645;28;20021;-85
2023/10/08 12:18:58;;;;;;;0.00;0.00;;;24.50;51.90;;;;;;5026370;28;20029;-84
2023/10/08 12:21:31;;;;;;;0.00;0.00;;;24.90;49.00;;;;;;5026453;28;20056;-85
2023/10/08 12:24:04;;;;;;;0.00;0.00;;;24.80;49.00;;;;;;5026518;28;20037;-84
2023/10/08 12:26:31;;;;;;;0.00;0.00;;;24.50;49.10;;;;;;5025977;28;20049;-83
2023/10/08 12:28:57;;;;;;;0.00;0.00;;;24.40;51.40;;;;;;5026985;28;20844;-84
2023/10/08 12:31:24;;;;;;;0.00;0.00;;;24.70;51.10;;;;;;5028598;28;20038;-85
2023/10/08 12:33:53;;;;;;;3.33;3.13;;;24.80;51.10;;;;;;5025758;28;20028;-86
2023/10/08 12:36:23;;;;;;;0.00;0.00;;;24.70;51.10;;;;;;5020609;28;20410;-86
2023/10/08 12:38:49;;;;;;;0.00;0.00;;;24.80;51.10;;;;;;5020479;28;20135;-85
2023/10/08 12:41:16;;;;;;;0.00;0.00;;;25.10;49.20;;;;;;5025098;28;20040;-84
2023/10/08 12:43:45;;;;;;;0.00;0.00;;;24.80;49.20;;;;;;5025591;28;20746;-83
2023/10/08 12:46:23;;;;;;;0.00;0.00;;;24.70;50.60;;;;;;5025115;28;20025;-83
2023/10/08 12:48:54;;;;;;;0.00;0.00;;;24.60;50.20;;;;;;5025180;28;20071;-83
2023/10/08 12:51:23;;;;;;;0.00;0.00;;;24.80;50.10;;;;;;5025556;28;20057;-84
2023/10/08 12:54:03;;;;;;;0.00;0.00;;;24.80;50.60;;;;;;5026252;28;20021;-83
2023/10/08 12:56:38;;;;;;;0.00;0.00;;;24.70;52.30;;;;;;5025750;28;20551;-84
2023/10/08 12:59:06;;;;;;;0.00;0.00;;;24.70;50.30;;;;;;5022822;28;20145;-84
2023/10/08 13:01:35;;;;;;;0.00;0.00;;;25.00;51.20;;;;;;5023705;28;20037;-84
2023/10/08 13:04:07;;;;;;;0.00;0.00;;;25.10;49.10;;;;;;5025681;28;20057;-84
2023/10/08 13:06:36;;;;;;;0.00;0.00;;;24.80;48.90;;;;;;5022644;28;20090;-84
2023/10/08 13:09:09;;;;;;;0.00;0.00;;;24.30;49.40;;;;;;5023449;28;20072;-85
2023/10/08 13:11:34;;;;;;;0.00;0.00;;;24.60;47.10;;;;;;5027125;28;20637;-84
2023/10/08 13:14:00;;;;;;;0.00;0.00;;;24.90;48.30;;;;;;5024585;28;20029;-84
2023/10/08 13:16:37;;;;;;;0.00;0.00;;;24.90;48.30;;;;;;5025626;28;20032;-85
2023/10/08 13:19:03;;;;;;;0.00;0.00;;;25.00;48.20;;;;;;5022507;28;20817;-85
2023/10/08 13:21:29;;;;;;;;;;;24.70;48.30;;;;;;5025024;28;20036;-85
2023/10/08 13:24:02;;;;;;;0.00;0.00;;;24.90;47.50;;;;;;5027471;28;19908;-85
2023/10/08 13:26:31;;;;;;;0.00;0.00;;;24.80;47.20;;;;;;5021878;28;20053;-84
2023/10/08 13:29:00;;;;;;;0.00;0.00;;;24.80;46.60;;;;;;5019698;28;20106;-85
2023/10/08 13:31:27;;;;;;;0.00;0.00;;;24.90;48.10;;;;;;5021610;28;20044;-85
2023/10/08 13:33:56;;;;;;;0.00;0.00;;;24.50;48.30;;;;;;5023459;28;20092;-85
2023/10/08 13:36:23;;;;;;;0.00;0.00;;;24.90;48.90;;;;;;5024347;28;20021;-85
2023/10/08 13:38:49;;;;;;;0.00;0.00;;;24.90;46.30;;;;;;5025284;28;20032;-85
2023/10/08 13:41:16;;;;;;;0.00;0.00;;;24.60;45.80;;;;;;5025178;28;20034;-85
2023/10/08 13:43:51;;;;;;;0.00;0.00;;;24.30;47.50;;;;;;5025355;28;20167;-85
2023/10/08 13:46:22;;;;;;;0.67;0.67;;;24.40;45.80;;;;;;5024789;28;20463;-85
2023/10/08 13:48:49;;;;;;;0.00;0.00;;;24.30;46.50;;;;;;5024778;28;20314;-84
2023/10/08 13:51:20;;;;;;;;;;;24.30;47.70;;;;;;5022858;28;20029;-85
2023/10/08 13:53:59;;;;;;;0.00;0.00;;;24.50;44.90;;;;;;5023349;28;20358;-84
2023/10/08 13:56:27;;;;;;;0.00;0.00;;;24.60;44.00;;;;;;5022916;28;20032;-85
2023/10/08 13:59:03;;;;;;;0.00;0.00;;;25.30;46.80;;;;;;5024931;28;20033;-84
2023/10/08 14:01:29;;;;;;;;;;;24.90;47.50;;;;;;5024644;28;20027;-84
2023/10/08 14:04:04;;;;;;;;;;;24.90;47.90;;;;;;5025301;28;19978;-84
2023/10/08 14:06:31;;;;;;;0.00;0.00;;;24.50;48.70;;;;;;5023534;28;20020;-83
2023/10/08 14:08:57;;;;;;;7.13;5.28;;;24.70;45.30;;;;;;5024383;28;20049;-83
2023/10/08 14:11:23;;;;;;;0.00;0.00;;;24.60;44.40;;;;;;5024882;28;20101;-84
2023/10/08 14:13:52;;;;;;;;;;;24.20;45.70;;;;;;5022472;28;20028;-84
2023/10/08 14:16:23;;;;;;;0.00;0.00;;;24.80;46.10;;;;;;5019051;28;19913;-83